Time;durP1;ratioP1;P1;durP2;ratioP2;P2;SDS_P1;SDS_P2;PMS_P1;PMS_P2;Temp;Humidity;BMP_temperature;BMP_pressure;BME280_temperature;BME280_humidity;BME280_pressure;Samples;Min_cycle;Max_cycle;Signal;HPM_P1;HPM_P2
2021/05/14 00:01:56;;;;;;;1.75;0.63;;;11.20;99.90;;;;;;4996959;28;20030;-75
2021/05/14 00:04:29;;;;;;;0.75;0.70;;;11.20;99.90;;;;;;5003196;28;20034;-73
2021/05/14 00:06:55;;;;;;;1.90;1.13;;;11.20;99.90;;;;;;5005725;28;20093;-75
2021/05/14 00:09:21;;;;;;;0.68;0.60;;;11.10;99.90;;;;;;4998883;28;20027;-76
2021/05/14 00:11:46;;;;;;;2.17;0.70;;;11.10;99.90;;;;;;5015513;28;20029;-74
2021/05/14 00:14:13;;;;;;;0.80;0.70;;;11.00;99.90;;;;;;5002391;28;20094;-75
2021/05/14 00:16:39;;;;;;;0.70;0.60;;;11.10;99.90;;;;;;5004096;28;20031;-76
2021/05/14 00:19:04;;;;;;;1.23;0.80;;;11.00;99.90;;;;;;4995717;28;20045;-75
2021/05/14 00:21:31;;;;;;;1.15;0.68;;;11.00;99.90;;;;;;4995319;28;20035;-77
2021/05/14 00:23:57;;;;;;;0.93;0.70;;;11.00;99.90;;;;;;4995539;28;20033;-76
2021/05/14 00:26:22;;;;;;;0.60;0.60;;;11.00;99.90;;;;;;4996051;28;20030;-75
2021/05/14 00:28:48;;;;;;;1.15;0.52;;;11.00;99.90;;;;;;5014734;28;20022;-76
2021/05/14 00:31:15;;;;;;;1.85;0.80;;;11.00;99.90;;;;;;4995932;28;20042;-76
2021/05/14 00:33:40;;;;;;;0.60;0.60;;;11.00;99.90;;;;;;4995327;28;20453;-76
2021/05/14 00:36:07;;;;;;;0.98;0.75;;;11.00;99.90;;;;;;4994920;28;20113;-75
2021/05/14 00:38:32;;;;;;;1.90;0.73;;;11.10;99.90;;;;;;4994804;28;20038;-75
2021/05/14 00:40:58;;;;;;;2.80;0.90;;;11.00;99.90;;;;;;4990935;28;20030;-76
2021/05/14 00:43:23;;;;;;;0.88;0.80;;;11.00;99.90;;;;;;4992865;28;20105;-75
2021/05/14 00:45:49;;;;;;;1.40;0.80;;;11.10;99.90;;;;;;4997266;28;20027;-75
2021/05/14 00:48:15;;;;;;;0.90;0.70;;;11.10;99.90;;;;;;5010088;28;20049;-73
2021/05/14 00:50:41;;;;;;;0.70;0.70;;;11.00;99.90;;;;;;4994938;28;20518;-76
2021/05/14 00:53:06;;;;;;;2.58;0.77;;;11.00;99.90;;;;;;4994556;28;20041;-76
2021/05/14 00:55:35;;;;;;;0.98;0.88;;;11.10;99.90;;;;;;4996356;28;20034;-76
2021/05/14 00:58:01;;;;;;;1.63;0.90;;;11.00;99.90;;;;;;4993899;28;20030;-76
2021/05/14 01:00:26;;;;;;;0.93;0.60;;;11.00;99.90;;;;;;4995214;28;20504;-76
2021/05/14 01:02:53;;;;;;;1.08;0.70;;;11.00;99.90;;;;;;4994216;28;20101;-74
2021/05/14 01:05:20;;;;;;;1.48;0.85;;;11.00;99.90;;;;;;5006671;23;20065;-71
2021/05/14 01:07:45;;;;;;;0.82;0.60;;;10.90;99.90;;;;;;4971516;28;20148;-71
2021/05/14 01:10:11;;;;;;;1.00;0.50;;;11.00;99.90;;;;;;4976544;28;20322;-71
2021/05/14 01:12:37;;;;;;;0.70;0.50;;;11.00;99.90;;;;;;4973783;28;20034;-71
2021/05/14 01:15:03;;;;;;;1.73;0.90;;;11.00;99.90;;;;;;4975785;28;20412;-71
2021/05/14 01:17:30;;;;;;;0.63;0.57;;;11.00;99.90;;;;;;4975597;28;20027;-71
2021/05/14 01:19:57;;;;;;;0.80;0.70;;;11.00;99.90;;;;;;4975451;28;20034;-72
2021/05/14 01:22:25;;;;;;;0.85;0.80;;;11.00;99.90;;;;;;4976587;28;20030;-71
2021/05/14 01:24:51;;;;;;;1.95;0.65;;;11.00;99.90;;;;;;4973500;28;20022;-71
2021/05/14 01:27:17;;;;;;;1.10;0.63;;;11.00;99.90;;;;;;4978485;28;20022;-72
2021/05/14 01:29:44;;;;;;;3.47;0.82;;;10.90;99.90;;;;;;4991948;28;20037;-70
2021/05/14 01:32:09;;;;;;;1.58;0.50;;;10.90;99.90;;;;;;4976997;28;20082;-71
2021/05/14 01:34:35;;;;;;;0.77;0.77;;;10.80;99.90;;;;;;4976421;28;20507;-71
2021/05/14 01:37:00;;;;;;;1.65;0.70;;;10.80;99.90;;;;;;4976099;28;20424;-71
2021/05/14 01:39:27;;;;;;;1.25;0.82;;;10.80;99.90;;;;;;4987983;28;20055;-72
2021/05/14 01:41:53;;;;;;;0.50;0.50;;;10.70;99.90;;;;;;4974972;28;20485;-72
2021/05/14 01:44:20;;;;;;;0.73;0.60;;;10.70;99.90;;;;;;4962583;28;20032;-72
2021/05/14 01:46:46;;;;;;;1.30;0.65;;;10.60;99.90;;;;;;4967450;28;20030;-71
2021/05/14 01:49:11;;;;;;;0.68;0.60;;;10.70;99.90;;;;;;4975143;28;20030;-71
2021/05/14 01:51:37;;;;;;;2.40;0.70;;;10.60;99.90;;;;;;4976006;28;20483;-71
2021/05/14 01:54:04;;;;;;;0.55;0.47;;;10.70;99.90;;;;;;4973546;28;20402;-72
2021/05/14 01:56:30;;;;;;;1.27;0.50;;;10.70;99.90;;;;;;4975660;28;20094;-71
2021/05/14 01:58:56;;;;;;;0.63;0.60;;;10.70;99.90;;;;;;4974437;28;20050;-70
2021/05/14 02:01:21;;;;;;;2.33;0.70;;;10.60;99.90;;;;;;4974240;28;20027;-72
2021/05/14 02:03:47;;;;;;;0.80;0.70;;;10.70;99.90;;;;;;4975585;28;20034;-71
2021/05/14 02:06:13;;;;;;;3.85;0.85;;;10.60;99.90;;;;;;4976423;28;20031;-72
2021/05/14 02:08:39;;;;;;;0.75;0.70;;;10.60;99.90;;;;;;4972891;28;20058;-71
2021/05/14 02:11:09;;;;;;;4.15;1.08;;;10.60;99.90;;;;;;4973248;28;20035;-72
2021/05/14 02:13:38;;;;;;;2.92;1.20;;;10.50;99.90;;;;;;4989332;28;20110;-72
2021/05/14 02:16:06;;;;;;;0.77;0.77;;;10.50;99.90;;;;;;4989172;28;20114;-70
2021/05/14 02:18:33;;;;;;;1.75;0.77;;;10.40;99.90;;;;;;4972754;28;20034;-71
2021/05/14 02:20:59;;;;;;;0.60;0.60;;;10.40;99.90;;;;;;4967724;28;20055;-71
2021/05/14 02:23:25;;;;;;;1.88;1.40;;;10.30;99.90;;;;;;4972347;28;20501;-71
2021/05/14 02:25:50;;;;;;;1.20;0.82;;;10.30;99.90;;;;;;4967118;28;20439;-70
2021/05/14 02:28:16;;;;;;;0.63;0.60;;;10.20;99.90;;;;;;4973884;28;20041;-71
2021/05/14 02:30:42;;;;;;;2.05;0.85;;;10.20;99.90;;;;;;4971359;28;20457;-71
2021/05/14 02:33:07;;;;;;;2.10;0.70;;;10.10;99.90;;;;;;4973053;28;20336;-71
2021/05/14 02:35:34;;;;;;;1.65;0.93;;;10.00;99.90;;;;;;4975907;28;20078;-71
2021/05/14 02:38:00;;;;;;;1.65;1.15;;;9.90;99.90;;;;;;4990621;28;20042;-71
2021/05/14 02:40:26;;;;;;;2.83;1.00;;;9.90;99.90;;;;;;4974436;28;20031;-71
2021/05/14 02:42:52;;;;;;;1.23;0.75;;;9.90;99.90;;;;;;4974504;28;20019;-71
2021/05/14 02:45:18;;;;;;;1.30;1.05;;;9.90;99.90;;;;;;4968611;28;20509;-70
2021/05/14 02:47:44;;;;;;;1.60;0.88;;;9.90;99.90;;;;;;4969303;28;20027;-71
2021/05/14 02:50:10;;;;;;;1.60;0.93;;;9.90;99.90;;;;;;4973321;28;20483;-71
2021/05/14 02:52:36;;;;;;;1.00;0.80;;;10.00;99.90;;;;;;4974128;28;20033;-71
2021/05/14 02:55:01;;;;;;;0.80;0.80;;;10.00;99.90;;;;;;4977643;28;20447;-71
2021/05/14 02:57:27;;;;;;;1.17;0.88;;;10.00;99.90;;;;;;4985338;28;20070;-71
2021/05/14 02:59:53;;;;;;;1.00;0.90;;;10.00;99.90;;;;;;4990158;28;20145;-71
2021/05/14 03:02:19;;;;;;;0.80;0.80;;;10.00;99.90;;;;;;4989549;28;20031;-71
2021/05/14 03:04:44;;;;;;;2.15;0.70;;;10.10;99.90;;;;;;4983450;28;20058;-71
2021/05/14 03:07:10;;;;;;;2.03;1.10;;;10.20;99.90;;;;;;4982524;28;20031;-71
2021/05/14 03:09:35;;;;;;;1.98;0.80;;;10.10;99.90;;;;;;4977182;28;20062;-71
2021/05/14 03:12:01;;;;;;;1.35;0.93;;;10.10;99.90;;;;;;4975800;28;20027;-71
2021/05/14 03:14:26;;;;;;;0.80;0.80;;;10.10;99.90;;;;;;4975370;28;20382;-71
2021/05/14 03:16:52;;;;;;;1.45;0.95;;;10.00;99.90;;;;;;4981253;28;20035;-71
2021/05/14 03:19:17;;;;;;;2.08;0.80;;;10.00;99.90;;;;;;4973835;28;20037;-71
2021/05/14 03:21:43;;;;;;;1.20;0.70;;;10.00;99.90;;;;;;4972321;28;20098;-71
2021/05/14 03:24:09;;;;;;;1.85;0.80;;;9.90;99.90;;;;;;4973354;28;20364;-70
2021/05/14 03:26:35;;;;;;;0.88;0.85;;;9.90;99.90;;;;;;4973176;28;20054;-70
2021/05/14 03:29:00;;;;;;;1.80;1.00;;;9.80;99.90;;;;;;4973870;28;20031;-71
2021/05/14 03:31:27;;;;;;;1.77;1.10;;;9.70;99.90;;;;;;4977318;28;20037;-71
2021/05/14 03:33:52;;;;;;;4.60;1.05;;;9.60;1.00;;;;;;4981749;28;20026;-71
2021/05/14 03:36:21;;;;;;;1.50;0.90;;;9.60;1.00;;;;;;4977766;28;20292;-71
2021/05/14 03:38:49;;;;;;;3.22;0.70;;;9.60;1.00;;;;;;4956324;28;20031;-71
2021/05/14 03:43:56;;;;;;;1.92;1.70;;;9.50;1.00;;;;;;4972485;28;20117;-71
2021/05/14 03:46:21;;;;;;;1.13;1.02;;;9.70;1.00;;;;;;4973081;28;20046;-71
2021/05/14 03:48:47;;;;;;;1.08;0.90;;;9.70;1.00;;;;;;4973164;28;20031;-71
2021/05/14 03:51:13;;;;;;;3.30;1.10;;;9.70;1.00;;;;;;4973505;28;20031;-71
2021/05/14 03:53:39;;;;;;;1.38;1.27;;;9.70;1.00;;;;;;4973448;28;20034;-70
2021/05/14 03:56:05;;;;;;;3.10;1.00;;;9.70;99.90;;;;;;4973180;28;20023;-70
2021/05/14 03:58:30;;;;;;;1.35;0.98;;;9.70;99.90;;;;;;4973056;28;20113;-72
2021/05/14 04:00:56;;;;;;;1.77;1.10;;;9.60;99.90;;;;;;4973883;28;20445;-72
2021/05/14 04:03:22;;;;;;;1.17;0.80;;;9.70;99.90;;;;;;4988471;28;20031;-71
2021/05/14 04:05:49;;;;;;;1.52;0.88;;;9.60;1.00;;;;;;4973520;28;20403;-70
2021/05/14 04:08:15;;;;;;;1.52;1.00;;;9.70;1.00;;;;;;4973979;28;20498;-71
2021/05/14 04:16:01;;;;;;;1.60;0.90;;;9.60;99.90;;;;;;4972141;28;20506;-71
2021/05/14 04:18:27;;;;;;;1.60;1.10;;;9.60;1.00;;;;;;4977881;28;20031;-71
2021/05/14 04:20:53;;;;;;;1.85;1.48;;;9.60;99.90;;;;;;4978059;28;20482;-71
2021/05/14 04:23:18;;;;;;;3.22;1.20;;;9.60;1.00;;;;;;4978161;28;20035;-71
2021/05/14 04:25:44;;;;;;;2.17;1.05;;;9.60;99.90;;;;;;4988609;28;20026;-71
2021/05/14 04:28:10;;;;;;;2.00;1.65;;;9.70;99.90;;;;;;4988792;28;20119;-70
2021/05/14 04:30:36;;;;;;;1.85;1.05;;;9.70;99.90;;;;;;4978288;28;20520;-71
2021/05/14 04:33:02;;;;;;;1.42;1.00;;;9.70;99.90;;;;;;4987496;28;20031;-71
2021/05/14 04:35:28;;;;;;;1.40;1.15;;;9.70;99.90;;;;;;4990557;28;20033;-72
2021/05/14 04:37:53;;;;;;;3.03;1.00;;;10.20;99.90;;;;;;4988604;28;20058;-70
2021/05/14 04:40:19;;;;;;;1.92;1.30;;;10.90;99.90;;;;;;4983358;28;20026;-70
2021/05/14 04:42:45;;;;;;;4.20;1.55;;;11.70;99.90;;;;;;4983946;28;20102;-71
2021/05/14 04:45:12;;;;;;;2.00;1.00;;;12.30;99.90;;;;;;4974218;28;20586;-71
2021/05/14 04:47:38;;;;;;;1.55;0.90;;;12.80;99.90;;;;;;4983943;28;20042;-71
2021/05/14 04:50:04;;;;;;;1.40;1.00;;;13.00;99.90;;;;;;4969690;28;20044;-71
2021/05/14 04:52:30;;;;;;;1.17;1.08;;;13.20;99.90;;;;;;4989940;28;20027;-72
2021/05/14 04:54:57;;;;;;;2.50;0.98;;;13.40;59.90;;;;;;4990099;28;20023;-71
2021/05/14 04:57:22;;;;;;;3.30;1.00;;;13.90;1.00;;;;;;4986503;28;20224;-71
2021/05/14 04:59:48;;;;;;;6.70;0.93;;;14.20;1.00;;;;;;4990181;28;20486;-72
2021/05/14 05:02:14;;;;;;;1.55;0.63;;;14.30;99.90;;;;;;4988142;28;20034;-71
2021/05/14 05:04:42;;;;;;;1.08;0.70;;;14.20;1.00;;;;;;4985195;28;20074;-72
2021/05/14 05:07:07;;;;;;;0.98;0.73;;;14.40;99.90;;;;;;4980957;28;20494;-71
2021/05/14 05:09:33;;;;;;;2.40;0.88;;;14.40;99.90;;;;;;4976547;28;20086;-72
2021/05/14 05:11:59;;;;;;;3.92;1.20;;;14.40;99.90;;;;;;4977012;28;20102;-70
2021/05/14 05:14:25;;;;;;;2.92;1.05;;;14.80;99.90;;;;;;4976256;28;20062;-70
2021/05/14 05:16:51;;;;;;;0.60;0.57;;;15.20;99.90;;;;;;4976334;28;20288;-74
2021/05/14 05:19:17;;;;;;;2.92;1.63;;;15.50;1.00;;;;;;4983045;28;20035;-72
2021/05/14 05:21:43;;;;;;;2.15;0.60;;;15.70;1.00;;;;;;4974146;28;20034;-73
2021/05/14 05:24:09;;;;;;;2.42;0.70;;;15.90;85.60;;;;;;4975763;28;20027;-72
2021/05/14 05:26:35;;;;;;;1.38;0.63;;;16.60;42.90;;;;;;4975781;28;20037;-71
2021/05/14 05:29:00;;;;;;;2.33;0.98;;;16.90;1.00;;;;;;4976407;28;20030;-73
2021/05/14 05:31:26;;;;;;;1.67;0.88;;;17.40;99.90;;;;;;4975904;28;20027;-71
2021/05/14 05:33:52;;;;;;;1.27;0.90;;;17.70;79.90;;;;;;4976143;28;20031;-72
2021/05/14 05:36:17;;;;;;;2.03;0.80;;;17.50;1.00;;;;;;4974763;28;20030;-71
2021/05/14 05:38:43;;;;;;;2.85;0.80;;;17.30;99.90;;;;;;4974302;28;20026;-71
2021/05/14 05:41:08;;;;;;;1.05;0.90;;;17.80;1.00;;;;;;4975633;28;20023;-71
2021/05/14 05:43:35;;;;;;;2.60;1.10;;;18.20;1.00;;;;;;4978546;28;20027;-71
2021/05/14 05:46:01;;;;;;;0.70;0.70;;;17.40;1.00;;;;;;4985603;28;20029;-71
2021/05/14 05:48:26;;;;;;;1.02;0.77;;;17.30;14.00;;;;;;4989578;28;20035;-72
2021/05/14 05:50:52;;;;;;;2.30;0.60;;;17.50;97.30;;;;;;4972932;28;20122;-71
2021/05/14 05:53:18;;;;;;;0.80;0.70;;;17.00;99.90;;;;;;4959895;28;20486;-71
2021/05/14 05:55:43;;;;;;;2.67;0.70;;;16.90;99.90;;;;;;4980586;28;20139;-71
2021/05/14 05:58:14;;;;;;;1.05;0.65;;;17.30;99.90;;;;;;4984771;28;20027;-72
2021/05/14 06:00:40;;;;;;;5.90;0.70;;;17.40;99.90;;;;;;4975982;28;20038;-71
2021/05/14 06:03:09;;;;;;;0.73;0.73;;;17.40;39.30;;;;;;4977167;28;20034;-72
2021/05/14 06:05:35;;;;;;;0.73;0.60;;;17.20;94.10;;;;;;4976885;28;20045;-71
2021/05/14 06:08:00;;;;;;;4.90;0.82;;;16.90;99.90;;;;;;4978856;28;20027;-70
2021/05/14 06:10:26;;;;;;;1.63;0.52;;;16.80;99.90;;;;;;4983698;28;20242;-73
2021/05/14 06:12:52;;;;;;;3.50;0.47;;;16.70;99.90;;;;;;4979511;28;20032;-72
2021/05/14 06:15:18;;;;;;;1.67;0.50;;;16.10;1.00;;;;;;4975536;28;20038;-71
2021/05/14 06:17:44;;;;;;;0.68;0.32;;;15.80;1.00;;;;;;4977941;28;20042;-72
2021/05/14 06:20:12;;;;;;;0.60;0.32;;;15.10;1.00;;;;;;4980732;28;20027;-71
2021/05/14 06:22:39;;;;;;;1.15;0.50;;;14.50;1.00;;;;;;4974534;28;20029;-72
2021/05/14 06:25:05;;;;;;;0.90;0.40;;;14.50;1.00;;;;;;4974075;28;20031;-71
2021/05/14 06:27:31;;;;;;;1.75;0.50;;;14.20;99.90;;;;;;4989516;28;20194;-71
2021/05/14 06:29:57;;;;;;;2.90;0.60;;;13.90;1.00;;;;;;4972928;28;20035;-70
2021/05/14 06:32:22;;;;;;;1.02;0.40;;;13.70;99.90;;;;;;4974296;28;20042;-71
2021/05/14 06:34:49;;;;;;;1.33;0.50;;;13.70;99.90;;;;;;4973570;28;20402;-71
2021/05/14 06:37:14;;;;;;;0.28;0.20;;;13.70;99.90;;;;;;4974153;28;20066;-71
2021/05/14 06:39:40;;;;;;;0.32;0.32;;;13.80;1.00;;;;;;4983224;28;20045;-72
2021/05/14 06:42:06;;;;;;;1.40;0.50;;;14.10;99.90;;;;;;4990329;28;20031;-72
2021/05/14 06:44:31;;;;;;;1.48;0.40;;;14.10;69.70;;;;;;4988566;28;20031;-71
2021/05/14 06:46:57;;;;;;;1.15;0.50;;;14.60;99.90;;;;;;4985348;28;20022;-70
2021/05/14 06:49:23;;;;;;;2.15;0.40;;;14.40;99.90;;;;;;5011060;28;20034;-71
2021/05/14 06:51:49;;;;;;;3.63;0.40;;;15.00;99.90;;;;;;4994396;28;20056;-72
2021/05/14 06:54:15;;;;;;;0.40;0.30;;;15.30;99.90;;;;;;4991542;28;20031;-72
2021/05/14 06:56:41;;;;;;;2.45;0.30;;;15.30;99.90;;;;;;4980942;28;20038;-72
2021/05/14 06:59:06;;;;;;;0.90;0.45;;;15.10;1.00;;;;;;4975952;28;20034;-71
2021/05/14 07:01:32;;;;;;;2.15;0.40;;;14.80;50.80;;;;;;4974824;28;20274;-71
2021/05/14 07:03:57;;;;;;;0.57;0.40;;;14.90;1.00;;;;;;4975841;28;20033;-71
2021/05/14 07:06:23;;;;;;;0.47;0.40;;;15.20;1.00;;;;;;4989236;23;20070;-79
2021/05/14 07:08:49;;;;;;;0.35;0.30;;;15.30;99.90;;;;;;4986312;28;20019;-78
2021/05/14 07:11:15;;;;;;;0.57;0.30;;;15.00;99.90;;;;;;4991955;28;20023;-78
2021/05/14 07:13:41;;;;;;;2.20;0.38;;;14.90;99.90;;;;;;4990577;28;20094;-78
2021/05/14 07:16:07;;;;;;;0.63;0.30;;;14.70;1.00;;;;;;4989361;28;20026;-77
2021/05/14 07:18:34;;;;;;;1.88;0.40;;;14.60;11.70;;;;;;4980311;28;20451;-77
2021/05/14 07:21:00;;;;;;;0.40;0.30;;;14.30;60.00;;;;;;4979795;28;20027;-77
2021/05/14 07:23:25;;;;;;;1.27;0.38;;;14.10;99.90;;;;;;4990505;28;20445;-77
2021/05/14 07:25:51;;;;;;;0.65;0.32;;;14.60;99.90;;;;;;4977494;28;20038;-76
2021/05/14 07:28:18;;;;;;;0.43;0.38;;;14.80;99.90;;;;;;4975259;28;20085;-77
2021/05/14 07:30:43;;;;;;;0.57;0.30;;;15.00;99.90;;;;;;4979538;28;20035;-78
2021/05/14 07:33:09;;;;;;;0.50;0.30;;;14.80;99.90;;;;;;4977746;28;20046;-77
2021/05/14 07:35:35;;;;;;;3.03;1.10;;;15.00;99.90;;;;;;4981317;28;20031;-77
2021/05/14 07:38:01;;;;;;;0.40;0.32;;;15.10;99.90;;;;;;4982360;28;20027;-77
2021/05/14 07:40:26;;;;;;;0.47;0.40;;;15.00;99.90;;;;;;4982527;28;20455;-77
2021/05/14 07:42:52;;;;;;;0.60;0.40;;;15.20;99.90;;;;;;4979399;28;20026;-78
2021/05/14 07:45:18;;;;;;;0.32;0.32;;;14.70;99.90;;;;;;4976887;28;20497;-76
2021/05/14 07:47:44;;;;;;;3.40;0.40;;;15.10;99.90;;;;;;4980290;28;20034;-77
2021/05/14 07:50:10;;;;;;;0.68;0.45;;;15.40;99.90;;;;;;4981694;28;20042;-79
2021/05/14 07:52:35;;;;;;;0.68;0.50;;;15.30;99.90;;;;;;4982836;28;20027;-77
2021/05/14 07:55:01;;;;;;;1.58;0.40;;;15.50;99.90;;;;;;4983972;28;20082;-77
2021/05/14 07:57:27;;;;;;;0.77;0.60;;;15.70;99.90;;;;;;4983708;28;20031;-77
2021/05/14 07:59:53;;;;;;;0.68;0.40;;;15.70;1.00;;;;;;4980736;28;20118;-78
2021/05/14 08:02:19;;;;;;;1.00;0.80;;;15.40;99.90;;;;;;4982564;28;20158;-78
2021/05/14 08:04:44;;;;;;;0.50;0.40;;;15.20;99.90;;;;;;4981410;28;20023;-77
2021/05/14 08:07:11;;;;;;;0.40;0.40;;;15.40;1.00;;;;;;4989566;28;20027;-77
2021/05/14 08:09:37;;;;;;;0.80;0.40;;;15.50;99.90;;;;;;4985874;28;20037;-77
2021/05/14 08:12:05;;;;;;;0.95;0.55;;;15.70;1.00;;;;;;4983693;28;20034;-78
2021/05/14 08:14:31;;;;;;;1.52;0.50;;;15.70;1.00;;;;;;4993524;28;20027;-78
2021/05/14 08:16:57;;;;;;;0.80;0.40;;;15.70;1.00;;;;;;4992127;28;20027;-79
2021/05/14 08:19:23;;;;;;;0.70;0.65;;;15.80;99.90;;;;;;4993437;28;20491;-77
2021/05/14 08:21:49;;;;;;;0.30;0.30;;;16.20;99.90;;;;;;4989481;28;20027;-78
2021/05/14 08:24:15;;;;;;;1.30;0.52;;;16.70;97.10;;;;;;4991453;28;20041;-76
2021/05/14 08:26:41;;;;;;;0.70;0.63;;;17.40;1.00;;;;;;4988090;28;20019;-78
2021/05/14 08:29:08;;;;;;;0.45;0.40;;;17.70;1.00;;;;;;4984486;28;20022;-79
2021/05/14 08:31:35;;;;;;;0.60;0.40;;;17.50;99.90;;;;;;4991934;28;20038;-79
2021/05/14 08:34:02;;;;;;;1.17;0.40;;;16.90;1.00;;;;;;4989090;28;20033;-78
2021/05/14 08:36:27;;;;;;;1.67;0.40;;;16.70;1.00;;;;;;4989076;28;20086;-78
2021/05/14 08:38:53;;;;;;;1.45;0.80;;;16.00;1.00;;;;;;4999244;28;20058;-80
2021/05/14 08:41:20;;;;;;;1.50;0.55;;;16.00;1.00;;;;;;5000294;28;20026;-79
2021/05/14 08:43:47;;;;;;;0.93;0.40;;;15.70;1.00;;;;;;4993870;28;20019;-77
2021/05/14 08:46:14;;;;;;;1.48;0.40;;;15.70;58.40;;;;;;4987438;28;20050;-78
2021/05/14 08:48:41;;;;;;;0.70;0.50;;;15.80;65.40;;;;;;4984650;28;20027;-79
2021/05/14 08:51:13;;;;;;;2.03;0.90;;;15.90;99.90;;;;;;4986992;28;20038;-80
2021/05/14 08:53:42;;;;;;;0.40;0.40;;;16.10;1.00;;;;;;4984663;28;20034;-78
2021/05/14 08:56:08;;;;;;;1.00;0.50;;;16.00;1.00;;;;;;4985616;28;20026;-78
2021/05/14 08:58:37;;;;;;;0.30;0.30;;;15.90;1.00;;;;;;4983314;28;20479;-77
2021/05/14 09:01:02;;;;;;;1.30;0.50;;;16.10;1.00;;;;;;4983941;28;20033;-77
2021/05/14 09:03:28;;;;;;;1.30;0.47;;;16.20;1.00;;;;;;4982782;28;20062;-79
2021/05/14 09:05:54;;;;;;;2.15;0.30;;;16.70;99.90;;;;;;4980773;28;20105;-78
2021/05/14 09:08:30;;;;;;;2.45;0.40;;;17.20;99.90;;;;;;4995786;28;20146;-78
2021/05/14 09:10:57;;;;;;;0.43;0.43;;;17.70;99.90;;;;;;4980906;28;20026;-78
2021/05/14 09:13:33;;;;;;;3.45;0.40;;;18.50;99.90;;;;;;4980830;28;20045;-79
2021/05/14 09:15:58;;;;;;;0.20;0.20;;;17.90;99.90;;;;;;4980891;28;20394;-79
2021/05/14 09:18:25;;;;;;;0.82;0.35;;;17.80;99.90;;;;;;4980448;28;20035;-78
2021/05/14 09:20:58;;;;;;;0.52;0.40;;;17.50;99.90;;;;;;4980857;28;20023;-78
2021/05/14 09:23:25;;;;;;;0.90;0.50;;;17.20;99.90;;;;;;4978177;28;20031;-78
2021/05/14 09:25:56;;;;;;;3.15;0.43;;;16.80;99.90;;;;;;4981208;28;20019;-79
2021/05/14 09:28:29;;;;;;;0.70;0.50;;;16.40;99.90;;;;;;4979740;28;20027;-79
2021/05/14 09:31:03;;;;;;;0.73;0.60;;;16.10;1.00;;;;;;4982682;28;20027;-81
2021/05/14 09:33:29;;;;;;;0.85;0.43;;;15.80;1.00;;;;;;4981661;28;20444;-80
2021/05/14 09:36:03;;;;;;;1.45;0.30;;;15.60;99.90;;;;;;4980664;28;20027;-79
2021/05/14 09:38:47;;;;;;;1.15;0.40;;;15.50;99.90;;;;;;4978002;28;20506;-78
2021/05/14 09:41:28;;;;;;;1.13;0.30;;;15.40;95.60;;;;;;4979671;28;20034;-78
2021/05/14 09:43:57;;;;;;;0.32;0.20;;;15.30;99.90;;;;;;4969685;28;20471;-79
2021/05/14 09:46:44;;;;;;;0.50;0.40;;;15.40;99.90;;;;;;4971755;28;20063;-78
2021/05/14 09:49:20;;;;;;;0.70;0.30;;;15.60;1.00;;;;;;4977669;28;20087;-78
2021/05/14 09:51:58;;;;;;;0.25;0.25;;;15.90;99.90;;;;;;4977374;28;20049;-78
2021/05/14 09:54:32;;;;;;;0.70;0.30;;;16.70;99.90;;;;;;4984642;28;20039;-79
2021/05/14 09:57:17;;;;;;;0.95;0.43;;;17.20;99.90;;;;;;4989113;28;20034;-78
2021/05/14 09:59:43;;;;;;;0.52;0.30;;;17.30;99.90;;;;;;4983837;28;20023;-78
2021/05/14 10:02:23;;;;;;;0.80;0.30;;;18.00;99.90;;;;;;4978101;28;20027;-75
2021/05/14 10:04:49;;;;;;;0.50;0.28;;;18.40;99.90;;;;;;4971448;28;20054;-75
2021/05/14 10:07:16;;;;;;;0.35;0.25;;;18.40;99.90;;;;;;4976042;28;20027;-74
2021/05/14 10:09:44;;;;;;;0.60;0.32;;;18.20;99.90;;;;;;4978106;28;20034;-76
2021/05/14 10:12:13;;;;;;;1.65;0.40;;;18.50;99.90;;;;;;4980179;28;20034;-75
2021/05/14 10:14:41;;;;;;;0.65;0.30;;;18.60;99.90;;;;;;4976212;28;20030;-74
2021/05/14 10:17:07;;;;;;;0.32;0.28;;;18.80;99.90;;;;;;4977005;28;20031;-74
2021/05/14 10:19:35;;;;;;;1.58;0.30;;;19.20;99.90;;;;;;4975501;28;20114;-74
2021/05/14 10:22:01;;;;;;;0.30;0.28;;;18.30;99.90;;;;;;5006162;28;20027;-75
2021/05/14 10:24:50;;;;;;;2.75;1.35;;;18.10;99.90;;;;;;5007867;28;20036;-77
2021/05/14 10:27:29;;;;;;;0.70;0.30;;;17.70;99.90;;;;;;4979256;28;20053;-78
2021/05/14 10:30:00;;;;;;;0.68;0.35;;;17.60;99.90;;;;;;4982717;28;20108;-77
2021/05/14 10:32:47;;;;;;;0.50;0.30;;;17.40;99.90;;;;;;4991923;28;20023;-77
2021/05/14 10:35:27;;;;;;;0.65;0.30;;;17.50;99.90;;;;;;4992207;28;20033;-78
2021/05/14 10:37:54;;;;;;;0.93;0.40;;;17.40;99.90;;;;;;4987799;28;20027;-77
2021/05/14 10:40:32;;;;;;;2.08;0.60;;;16.70;99.90;;;;;;4992050;28;20022;-78
2021/05/14 10:43:03;;;;;;;2.15;1.00;;;16.30;99.90;;;;;;4992152;28;20487;-77
2021/05/14 10:45:42;;;;;;;3.35;0.80;;;16.30;99.90;;;;;;4990138;28;20033;-77
2021/05/14 10:48:23;;;;;;;0.30;0.22;;;15.60;99.90;;;;;;4983437;28;20073;-77
2021/05/14 10:50:57;;;;;;;2.58;0.30;;;15.70;10.60;;;;;;4973822;28;20022;-77
2021/05/14 10:53:46;;;;;;;2.25;0.52;;;15.90;1.00;;;;;;4978479;28;20502;-76
2021/05/14 10:56:11;;;;;;;1.80;0.68;;;15.30;99.90;;;;;;4980167;28;20041;-77
2021/05/14 10:59:07;;;;;;;1.75;0.70;;;14.80;99.90;;;;;;4986238;28;20023;-77
2021/05/14 11:01:43;;;;;;;0.95;0.50;;;14.60;99.90;;;;;;4978873;28;20037;-77
2021/05/14 11:04:15;;;;;;;1.90;0.77;;;14.50;99.90;;;;;;4981337;28;20023;-78
2021/05/14 11:06:44;;;;;;;2.50;0.73;;;14.70;99.90;;;;;;4980893;28;20308;-77
2021/05/14 11:09:14;;;;;;;2.85;0.63;;;14.80;99.90;;;;;;4980664;28;20046;-78
2021/05/14 11:11:58;;;;;;;2.57;0.60;;;14.80;99.90;;;;;;4975281;28;20038;-77
2021/05/14 11:14:25;;;;;;;1.20;0.50;;;14.70;99.90;;;;;;4980875;28;20062;-78
2021/05/14 11:16:52;;;;;;;1.00;0.52;;;14.50;99.90;;;;;;4981293;28;20073;-78
2021/05/14 11:19:28;;;;;;;1.95;0.50;;;14.60;99.90;;;;;;4982725;28;20093;-77
2021/05/14 11:22:09;;;;;;;0.75;0.43;;;14.40;99.90;;;;;;4997107;28;20012;-77
2021/05/14 11:24:39;;;;;;;2.17;0.40;;;14.50;99.90;;;;;;4985688;28;20019;-77
2021/05/14 11:27:11;;;;;;;1.27;0.50;;;15.20;99.90;;;;;;4984448;28;20038;-76
2021/05/14 11:29:37;;;;;;;1.73;0.50;;;15.40;99.90;;;;;;4983642;28;20037;-78
2021/05/14 11:32:25;;;;;;;2.00;0.40;;;15.40;62.60;;;;;;4986204;28;20043;-77
2021/05/14 11:35:08;;;;;;;2.30;0.93;;;15.10;99.90;;;;;;5010447;28;20030;-78
2021/05/14 11:37:58;;;;;;;1.13;0.85;;;14.90;99.90;;;;;;4985637;28;20026;-76
2021/05/14 11:40:42;;;;;;;1.33;0.60;;;15.10;99.90;;;;;;4980130;28;20053;-77
2021/05/14 11:43:13;;;;;;;0.57;0.52;;;15.40;99.90;;;;;;4986125;28;20031;-77
2021/05/14 11:45:41;;;;;;;1.25;0.50;;;15.50;99.90;;;;;;4993636;28;20030;-77
2021/05/14 11:48:11;;;;;;;2.58;0.73;;;15.60;99.90;;;;;;4979922;28;20479;-77
2021/05/14 11:50:39;;;;;;;1.08;0.95;;;16.20;99.90;;;;;;4980674;28;20038;-77
2021/05/14 11:53:07;;;;;;;1.50;0.93;;;16.60;99.90;;;;;;4979305;28;20550;-76
2021/05/14 11:55:35;;;;;;;0.55;0.43;;;17.10;99.90;;;;;;4980343;28;20062;-76
2021/05/14 11:58:01;;;;;;;0.88;0.47;;;17.50;99.90;;;;;;4980501;28;20026;-78
2021/05/14 12:00:28;;;;;;;1.00;0.40;;;17.80;99.90;;;;;;4982220;28;20023;-77
2021/05/14 12:02:56;;;;;;;0.75;0.40;;;18.40;1.00;;;;;;4981631;28;20027;-76
2021/05/14 12:05:24;;;;;;;0.77;0.57;;;18.30;99.90;;;;;;4982257;28;20035;-77
2021/05/14 12:07:51;;;;;;;1.63;0.50;;;19.00;99.90;;;;;;4979778;28;20090;-75
2021/05/14 12:10:18;;;;;;;3.33;0.95;;;18.90;99.90;;;;;;4978507;28;20026;-75
2021/05/14 12:12:45;;;;;;;0.90;0.45;;;18.70;24.10;;;;;;5011739;28;20121;-77
2021/05/14 12:15:14;;;;;;;1.40;0.60;;;18.20;1.00;;;;;;4980491;28;20027;-77
2021/05/14 12:17:40;;;;;;;0.43;0.32;;;18.20;99.90;;;;;;4980225;28;20167;-77
2021/05/14 12:20:30;;;;;;;1.25;0.90;;;18.10;99.90;;;;;;4979899;28;20113;-77
2021/05/14 12:22:58;;;;;;;0.67;0.60;;;18.70;99.90;;;;;;4982696;28;20025;-77
2021/05/14 12:25:25;;;;;;;0.43;0.40;;;18.80;17.30;;;;;;4995877;28;20019;-76
2021/05/14 12:27:51;;;;;;;0.63;0.47;;;18.80;1.00;;;;;;4978865;28;20031;-77
2021/05/14 12:30:17;;;;;;;0.85;0.50;;;18.70;16.30;;;;;;4996550;28;20054;-76
2021/05/14 12:32:57;;;;;;;0.65;0.40;;;18.20;1.00;;;;;;4980395;28;20038;-76
2021/05/14 12:35:23;;;;;;;1.58;0.45;;;18.00;1.00;;;;;;4981451;28;20119;-77
2021/05/14 12:37:57;;;;;;;0.30;0.30;;;17.50;99.90;;;;;;4974779;28;20387;-77
2021/05/14 12:40:39;;;;;;;1.10;0.57;;;17.50;1.00;;;;;;4980050;28;20034;-77
2021/05/14 12:43:07;;;;;;;0.95;0.60;;;17.40;99.90;;;;;;4979737;28;20023;-77
2021/05/14 12:45:35;;;;;;;1.63;0.47;;;17.80;1.00;;;;;;4988636;28;20030;-77
2021/05/14 12:48:02;;;;;;;1.08;0.82;;;18.00;1.00;;;;;;4979220;28;20034;-77
2021/05/14 12:50:28;;;;;;;0.60;0.40;;;18.60;99.90;;;;;;4980026;28;20034;-77
2021/05/14 12:52:53;;;;;;;0.60;0.35;;;18.60;99.90;;;;;;4982037;28;20027;-77
2021/05/14 12:55:20;;;;;;;1.42;0.40;;;17.80;99.90;;;;;;4978956;28;20403;-77
2021/05/14 12:57:57;;;;;;;0.73;0.30;;;18.00;99.90;;;;;;4975905;28;20458;-76
2021/05/14 13:00:29;;;;;;;1.10;0.45;;;18.20;99.90;;;;;;4979525;28;20113;-76
2021/05/14 13:02:57;;;;;;;1.10;0.43;;;18.70;99.90;;;;;;4979085;28;20041;-77